sensor_id;sensor_type;location;lat;lon;timestamp;pressure;altitude;pressure_sealevel;temperature;humidity
82476;BME280;72099;43.176;76.872;2023-12-20T00:02:48;90494.09;;;-0.45;70.85
82476;BME280;72099;43.176;76.872;2023-12-20T00:05:49;90504.94;;;-0.63;70.72
82476;BME280;72099;43.176;76.872;2023-12-20T00:08:50;90492.22;;;-0.85;70.69
82476;BME280;72099;43.176;76.872;2023-12-20T00:11:51;90497.63;;;-0.92;71.13
82476;BME280;72099;43.176;76.872;2023-12-20T00:14:52;90492.44;;;-0.92;70.92
82476;BME280;72099;43.176;76.872;2023-12-20T00:17:52;90504.84;;;-0.99;70.55
82476;BME280;72099;43.176;76.872;2023-12-20T00:20:53;90500.66;;;-1.10;71.43
82476;BME280;72099;43.176;76.872;2023-12-20T00:23:54;90502.47;;;-1.10;70.82
82476;BME280;72099;43.176;76.872;2023-12-20T00:26:55;90515.63;;;-1.17;71.16
82476;BME280;72099;43.176;76.872;2023-12-20T00:29:56;90512.50;;;-1.29;71.35
82476;BME280;72099;43.176;76.872;2023-12-20T00:32:57;90517.59;;;-1.39;71.54
82476;BME280;72099;43.176;76.872;2023-12-20T00:35:57;90522.97;;;-1.51;71.48
82476;BME280;72099;43.176;76.872;2023-12-20T00:38:58;90520.69;;;-1.37;72.21
82476;BME280;72099;43.176;76.872;2023-12-20T00:41:59;90519.47;;;-1.30;70.83
82476;BME280;72099;43.176;76.872;2023-12-20T00:45:00;90532.66;;;-1.16;71.41
82476;BME280;72099;43.176;76.872;2023-12-20T00:48:01;90532.94;;;-1.12;71.27
82476;BME280;72099;43.176;76.872;2023-12-20T00:51:02;90544.50;;;-1.25;71.66
82476;BME280;72099;43.176;76.872;2023-12-20T00:54:04;90539.53;;;-1.42;71.32
82476;BME280;72099;43.176;76.872;2023-12-20T00:57:05;90542.28;;;-1.54;70.89
82476;BME280;72099;43.176;76.872;2023-12-20T01:00:06;90537.59;;;-1.67;71.46
82476;BME280;72099;43.176;76.872;2023-12-20T01:03:07;90546.19;;;-1.51;71.26
82476;BME280;72099;43.176;76.872;2023-12-20T01:06:08;90545.94;;;-1.44;70.64
82476;BME280;72099;43.176;76.872;2023-12-20T01:09:08;90548.78;;;-1.46;71.75
82476;BME280;72099;43.176;76.872;2023-12-20T01:12:09;90548.09;;;-1.26;71.14
82476;BME280;72099;43.176;76.872;2023-12-20T01:15:10;90526.59;;;-1.47;70.72
82476;BME280;72099;43.176;76.872;2023-12-20T01:18:11;90537.63;;;-1.57;70.76
82476;BME280;72099;43.176;76.872;2023-12-20T01:21:12;90546.38;;;-1.63;71.11
82476;BME280;72099;43.176;76.872;2023-12-20T01:24:13;90541.47;;;-1.64;71.83
82476;BME280;72099;43.176;76.872;2023-12-20T01:27:14;90545.47;;;-1.41;71.88
82476;BME280;72099;43.176;76.872;2023-12-20T01:30:15;90556.38;;;-1.24;71.83
82476;BME280;72099;43.176;76.872;2023-12-20T01:33:16;90547.06;;;-1.30;70.91
82476;BME280;72099;43.176;76.872;2023-12-20T01:36:16;90552.13;;;-1.45;71.41
82476;BME280;72099;43.176;76.872;2023-12-20T01:39:17;90555.72;;;-1.52;71.81
82476;BME280;72099;43.176;76.872;2023-12-20T01:42:18;90555.19;;;-1.54;71.67
82476;BME280;72099;43.176;76.872;2023-12-20T01:45:19;90562.38;;;-1.61;71.53
82476;BME280;72099;43.176;76.872;2023-12-20T01:48:20;90554.00;;;-1.78;71.45
82476;BME280;72099;43.176;76.872;2023-12-20T01:51:22;90561.66;;;-1.93;72.13
82476;BME280;72099;43.176;76.872;2023-12-20T01:54:23;90569.81;;;-2.06;72.07
82476;BME280;72099;43.176;76.872;2023-12-20T01:57:24;90566.13;;;-2.16;72.13
82476;BME280;72099;43.176;76.872;2023-12-20T02:00:26;90584.72;;;-2.09;71.64
82476;BME280;72099;43.176;76.872;2023-12-20T02:03:28;90579.34;;;-2.07;71.51
82476;BME280;72099;43.176;76.872;2023-12-20T02:09:56;90588.97;;;-2.24;71.54
82476;BME280;72099;43.176;76.872;2023-12-20T02:12:57;90595.81;;;-2.08;72.22
82476;BME280;72099;43.176;76.872;2023-12-20T02:15:58;90603.94;;;-1.89;71.37
82476;BME280;72099;43.176;76.872;2023-12-20T02:18:59;90599.81;;;-1.90;71.03
82476;BME280;72099;43.176;76.872;2023-12-20T02:22:10;90615.03;;;-1.89;71.72
82476;BME280;72099;43.176;76.872;2023-12-20T02:25:11;90606.56;;;-1.84;71.11
82476;BME280;72099;43.176;76.872;2023-12-20T02:28:12;90614.50;;;-1.91;71.16
82476;BME280;72099;43.176;76.872;2023-12-20T02:31:12;90616.84;;;-1.89;71.34
82476;BME280;72099;43.176;76.872;2023-12-20T02:34:13;90615.41;;;-1.75;72.08
82476;BME280;72099;43.176;76.872;2023-12-20T02:37:14;90610.91;;;-1.53;72.06
82476;BME280;72099;43.176;76.872;2023-12-20T02:40:15;90604.47;;;-1.55;70.43
82476;BME280;72099;43.176;76.872;2023-12-20T02:43:16;90621.59;;;-1.71;71.04
82476;BME280;72099;43.176;76.872;2023-12-20T02:46:17;90632.03;;;-1.93;71.35
82476;BME280;72099;43.176;76.872;2023-12-20T02:49:18;90646.09;;;-2.05;71.97
82476;BME280;72099;43.176;76.872;2023-12-20T02:52:19;90641.41;;;-2.09;71.80
82476;BME280;72099;43.176;76.872;2023-12-20T02:55:20;90636.09;;;-1.97;72.40
82476;BME280;72099;43.176;76.872;2023-12-20T02:58:21;90656.38;;;-1.79;71.66
82476;BME280;72099;43.176;76.872;2023-12-20T03:01:21;90653.47;;;-1.87;71.16
82476;BME280;72099;43.176;76.872;2023-12-20T03:04:22;90612.25;;;-2.14;71.56
82476;BME280;72099;43.176;76.872;2023-12-20T03:07:23;90657.19;;;-1.73;70.91
82476;BME280;72099;43.176;76.872;2023-12-20T03:10:24;90680.94;;;-1.34;71.14
82476;BME280;72099;43.176;76.872;2023-12-20T03:13:25;90673.06;;;-1.17;70.52
82476;BME280;72099;43.176;76.872;2023-12-20T03:16:26;90670.53;;;-1.07;69.99
82476;BME280;72099;43.176;76.872;2023-12-20T03:19:26;90685.81;;;-1.00;69.95
82476;BME280;72099;43.176;76.872;2023-12-20T03:22:27;90702.81;;;-1.04;69.74
82476;BME280;72099;43.176;76.872;2023-12-20T03:25:28;90689.50;;;-1.28;70.04
82476;BME280;72099;43.176;76.872;2023-12-20T03:28:29;90707.03;;;-1.30;70.69
82476;BME280;72099;43.176;76.872;2023-12-20T03:31:30;90702.88;;;-1.31;70.70
82476;BME280;72099;43.176;76.872;2023-12-20T03:34:31;90712.13;;;-1.40;71.14
82476;BME280;72099;43.176;76.872;2023-12-20T03:37:32;90712.50;;;-1.22;71.40
82476;BME280;72099;43.176;76.872;2023-12-20T03:40:33;90711.09;;;-1.02;70.62
82476;BME280;72099;43.176;76.872;2023-12-20T03:43:34;90711.47;;;-0.78;70.48
82476;BME280;72099;43.176;76.872;2023-12-20T03:46:35;90722.50;;;-0.51;69.99
82476;BME280;72099;43.176;76.872;2023-12-20T03:49:36;90716.88;;;-0.27;70.07
82476;BME280;72099;43.176;76.872;2023-12-20T03:52:39;90712.56;;;-0.12;69.19
82476;BME280;72099;43.176;76.872;2023-12-20T03:55:40;90723.72;;;0.09;69.25
82476;BME280;72099;43.176;76.872;2023-12-20T03:58:41;90711.06;;;0.18;68.24
82476;BME280;72099;43.176;76.872;2023-12-20T04:01:45;90721.22;;;0.40;68.77
82476;BME280;72099;43.176;76.872;2023-12-20T04:04:45;90724.06;;;0.53;68.20
82476;BME280;72099;43.176;76.872;2023-12-20T04:07:46;90736.25;;;0.73;67.76
82476;BME280;72099;43.176;76.872;2023-12-20T04:10:47;90739.88;;;0.93;67.31
82476;BME280;72099;43.176;76.872;2023-12-20T04:13:48;90746.06;;;1.02;67.18
82476;BME280;72099;43.176;76.872;2023-12-20T04:16:49;90734.94;;;0.96;66.55
82476;BME280;72099;43.176;76.872;2023-12-20T04:19:50;90742.97;;;0.95;67.07
82476;BME280;72099;43.176;76.872;2023-12-20T04:22:51;90744.53;;;0.96;67.15
82476;BME280;72099;43.176;76.872;2023-12-20T04:25:53;90759.53;;;1.04;67.16
82476;BME280;72099;43.176;76.872;2023-12-20T04:28:54;90762.66;;;1.06;66.83
82476;BME280;72099;43.176;76.872;2023-12-20T04:31:54;90762.91;;;1.14;67.20
82476;BME280;72099;43.176;76.872;2023-12-20T04:34:56;90753.31;;;1.20;66.64
82476;BME280;72099;43.176;76.872;2023-12-20T04:37:56;90768.06;;;1.35;66.42
82476;BME280;72099;43.176;76.872;2023-12-20T04:40:57;90771.16;;;1.42;66.30
82476;BME280;72099;43.176;76.872;2023-12-20T04:43:58;90775.59;;;1.46;66.08
82476;BME280;72099;43.176;76.872;2023-12-20T04:46:59;90767.31;;;1.34;65.97
82476;BME280;72099;43.176;76.872;2023-12-20T04:50:00;90784.66;;;1.44;66.48
82476;BME280;72099;43.176;76.872;2023-12-20T04:53:01;90809.50;;;1.55;66.15
82476;BME280;72099;43.176;76.872;2023-12-20T04:56:02;90823.00;;;1.62;65.59
82476;BME280;72099;43.176;76.872;2023-12-20T04:59:03;90827.88;;;1.84;65.51
82476;BME280;72099;43.176;76.872;2023-12-20T05:02:04;90823.16;;;2.12;64.78
82476;BME280;72099;43.176;76.872;2023-12-20T05:05:05;90783.75;;;1.99;64.50
82476;BME280;72099;43.176;76.872;2023-12-20T05:08:06;90846.38;;;2.42;64.73
82476;BME280;72099;43.176;76.872;2023-12-20T05:11:06;90861.97;;;2.42;64.42
82476;BME280;72099;43.176;76.872;2023-12-20T05:14:07;90861.78;;;2.23;64.80
82476;BME280;72099;43.176;76.872;2023-12-20T05:17:08;90865.16;;;2.19;65.61
82476;BME280;72099;43.176;76.872;2023-12-20T05:20:09;90870.34;;;2.24;65.85
82476;BME280;72099;43.176;76.872;2023-12-20T05:23:10;90876.03;;;2.31;65.80
82476;BME280;72099;43.176;76.872;2023-12-20T05:26:12;90892.94;;;2.23;65.54
82476;BME280;72099;43.176;76.872;2023-12-20T05:29:13;90898.94;;;2.09;65.70
82476;BME280;72099;43.176;76.872;2023-12-20T05:32:13;90896.09;;;1.90;66.31
82476;BME280;72099;43.176;76.872;2023-12-20T05:35:14;90905.16;;;1.67;67.31
82476;BME280;72099;43.176;76.872;2023-12-20T05:38:15;90919.16;;;1.56;67.59
82476;BME280;72099;43.176;76.872;2023-12-20T05:41:17;90880.28;;;1.25;67.82
82476;BME280;72099;43.176;76.872;2023-12-20T05:44:18;90913.47;;;1.33;68.37
82476;BME280;72099;43.176;76.872;2023-12-20T05:47:19;90904.34;;;1.15;68.44
82476;BME280;72099;43.176;76.872;2023-12-20T05:50:20;90914.72;;;1.15;68.87
82476;BME280;72099;43.176;76.872;2023-12-20T05:53:21;90914.72;;;1.15;68.94
82476;BME280;72099;43.176;76.872;2023-12-20T05:56:22;90911.34;;;1.15;69.06
82476;BME280;72099;43.176;76.872;2023-12-20T05:59:23;90890.09;;;1.13;68.93
82476;BME280;72099;43.176;76.872;2023-12-20T06:02:24;90908.75;;;1.15;68.88
82476;BME280;72099;43.176;76.872;2023-12-20T06:05:25;90914.22;;;1.24;69.12
82476;BME280;72099;43.176;76.872;2023-12-20T06:08:26;90908.00;;;1.30;69.30
82476;BME280;72099;43.176;76.872;2023-12-20T06:11:26;90917.09;;;1.37;69.28
82476;BME280;72099;43.176;76.872;2023-12-20T06:14:28;90925.66;;;1.48;69.40
82476;BME280;72099;43.176;76.872;2023-12-20T06:17:28;90906.22;;;1.61;69.33
82476;BME280;72099;43.176;76.872;2023-12-20T06:20:32;90913.47;;;1.89;68.65
82476;BME280;72099;43.176;76.872;2023-12-20T06:23:33;90920.97;;;2.06;68.13
82476;BME280;72099;43.176;76.872;2023-12-20T06:26:34;90912.41;;;2.00;67.56
82476;BME280;72099;43.176;76.872;2023-12-20T06:29:35;90934.72;;;2.06;68.15
82476;BME280;72099;43.176;76.872;2023-12-20T06:32:36;90941.22;;;1.94;68.34
82476;BME280;72099;43.176;76.872;2023-12-20T06:35:38;90951.84;;;1.77;68.74
82476;BME280;72099;43.176;76.872;2023-12-20T06:38:39;90943.56;;;1.65;69.16
82476;BME280;72099;43.176;76.872;2023-12-20T06:41:40;90954.19;;;1.63;69.15
82476;BME280;72099;43.176;76.872;2023-12-20T06:44:40;90961.72;;;1.60;69.17
82476;BME280;72099;43.176;76.872;2023-12-20T06:47:41;90968.94;;;1.53;69.68
82476;BME280;72099;43.176;76.872;2023-12-20T06:50:42;90979.59;;;1.51;69.62
82476;BME280;72099;43.176;76.872;2023-12-20T06:53:43;90976.19;;;1.40;69.61
82476;BME280;72099;43.176;76.872;2023-12-20T06:56:44;90967.63;;;1.35;70.01
82476;BME280;72099;43.176;76.872;2023-12-20T06:59:45;90972.31;;;1.38;69.91
82476;BME280;72099;43.176;76.872;2023-12-20T07:02:46;90978.00;;;1.35;69.86
82476;BME280;72099;43.176;76.872;2023-12-20T07:05:48;90971.50;;;1.27;70.03
82476;BME280;72099;43.176;76.872;2023-12-20T07:08:48;90980.06;;;1.33;70.23
82476;BME280;72099;43.176;76.872;2023-12-20T07:11:52;90969.97;;;1.31;69.91
82476;BME280;72099;43.176;76.872;2023-12-20T07:14:53;90973.06;;;1.38;70.03
82476;BME280;72099;43.176;76.872;2023-12-20T07:17:54;90973.34;;;1.32;69.83
82476;BME280;72099;43.176;76.872;2023-12-20T07:20:54;90981.38;;;1.35;69.88
82476;BME280;72099;43.176;76.872;2023-12-20T07:23:55;90978.25;;;1.38;70.04
82476;BME280;72099;43.176;76.872;2023-12-20T07:26:56;90980.09;;;1.48;69.93
82476;BME280;72099;43.176;76.872;2023-12-20T07:29:57;90996.16;;;1.55;69.60
82476;BME280;72099;43.176;76.872;2023-12-20T07:32:58;90999.56;;;1.61;69.65
82476;BME280;72099;43.176;76.872;2023-12-20T07:35:59;90999.31;;;1.62;70.11
82476;BME280;72099;43.176;76.872;2023-12-20T07:39:01;91008.63;;;1.63;70.00
82476;BME280;72099;43.176;76.872;2023-12-20T07:42:02;91023.69;;;1.66;70.45
82476;BME280;72099;43.176;76.872;2023-12-20T07:45:03;91028.59;;;1.63;70.27
82476;BME280;72099;43.176;76.872;2023-12-20T07:48:05;91038.97;;;1.58;70.89
82476;BME280;72099;43.176;76.872;2023-12-20T07:51:07;91048.00;;;1.50;70.66
82476;BME280;72099;43.176;76.872;2023-12-20T07:54:09;91042.28;;;1.43;70.86
82476;BME280;72099;43.176;76.872;2023-12-20T07:57:11;91060.41;;;1.38;70.85
82476;BME280;72099;43.176;76.872;2023-12-20T08:00:12;91061.16;;;1.23;70.92
82476;BME280;72099;43.176;76.872;2023-12-20T08:03:13;91083.44;;;1.24;71.41
82476;BME280;72099;43.176;76.872;2023-12-20T08:09:51;91126.31;;;1.00;71.27
82476;BME280;72099;43.176;76.872;2023-12-20T08:12:52;91136.31;;;0.81;71.98
82476;BME280;72099;43.176;76.872;2023-12-20T08:19:44;91157.44;;;0.36;72.81
82476;BME280;72099;43.176;76.872;2023-12-20T08:22:45;91161.81;;;0.30;73.38
82476;BME280;72099;43.176;76.872;2023-12-20T08:29:24;91183.44;;;0.19;74.16
82476;BME280;72099;43.176;76.872;2023-12-20T08:32:26;91193.66;;;0.09;74.82
82476;BME280;72099;43.176;76.872;2023-12-20T08:35:27;91188.38;;;-0.02;75.10
82476;BME280;72099;43.176;76.872;2023-12-20T08:38:28;91183.31;;;-0.18;74.84
82476;BME280;72099;43.176;76.872;2023-12-20T08:41:28;91198.81;;;-0.18;75.24
82476;BME280;72099;43.176;76.872;2023-12-20T08:44:29;91208.38;;;-0.19;75.25
82476;BME280;72099;43.176;76.872;2023-12-20T08:47:30;91195.69;;;-0.20;76.06
82476;BME280;72099;43.176;76.872;2023-12-20T08:50:31;91208.63;;;-0.20;76.14
82476;BME280;72099;43.176;76.872;2023-12-20T08:53:32;91222.81;;;-0.23;76.26
82476;BME280;72099;43.176;76.872;2023-12-20T08:56:34;91228.81;;;-0.17;75.92
82476;BME280;72099;43.176;76.872;2023-12-20T08:59:35;91223.66;;;-0.17;77.16
82476;BME280;72099;43.176;76.872;2023-12-20T09:02:36;91227.31;;;-0.13;76.12
82476;BME280;72099;43.176;76.872;2023-12-20T09:05:38;91227.09;;;-0.12;76.22
82476;BME280;72099;43.176;76.872;2023-12-20T09:08:38;91228.66;;;-0.11;76.69
82476;BME280;72099;43.176;76.872;2023-12-20T09:11:39;91153.63;;;-0.60;76.32
82476;BME280;72099;43.176;76.872;2023-12-20T09:14:40;91228.41;;;-0.09;76.57
82476;BME280;72099;43.176;76.872;2023-12-20T09:17:41;91131.47;;;-0.77;76.91
82476;BME280;72099;43.176;76.872;2023-12-20T09:20:42;91232.31;;;-0.07;77.29
82476;BME280;72099;43.176;76.872;2023-12-20T09:23:43;91224.06;;;-0.04;76.63
82476;BME280;72099;43.176;76.872;2023-12-20T09:26:44;91227.53;;;0.07;76.78
82476;BME280;72099;43.176;76.872;2023-12-20T09:29:45;91226.91;;;0.22;76.92
82476;BME280;72099;43.176;76.872;2023-12-20T09:32:45;91238.13;;;0.27;76.54
82476;BME280;72099;43.176;76.872;2023-12-20T09:35:46;91239.44;;;0.30;76.76
82476;BME280;72099;43.176;76.872;2023-12-20T09:38:47;91238.97;;;0.38;76.53
82476;BME280;72099;43.176;76.872;2023-12-20T09:42:08;91239.81;;;0.44;76.14
82476;BME280;72099;43.176;76.872;2023-12-20T09:45:13;91248.66;;;0.48;75.82
82476;BME280;72099;43.176;76.872;2023-12-20T09:48:18;91251.47;;;0.46;76.43
82476;BME280;72099;43.176;76.872;2023-12-20T09:51:20;91270.34;;;0.42;75.89
82476;BME280;72099;43.176;76.872;2023-12-20T09:54:23;91223.94;;;0.08;76.03
82476;BME280;72099;43.176;76.872;2023-12-20T09:57:24;91278.53;;;0.34;76.68
82476;BME280;72099;43.176;76.872;2023-12-20T10:00:25;91292.19;;;0.29;76.56
82476;BME280;72099;43.176;76.872;2023-12-20T10:03:25;91308.19;;;0.26;76.62
82476;BME280;72099;43.176;76.872;2023-12-20T10:06:29;91316.97;;;0.25;77.44
82476;BME280;72099;43.176;76.872;2023-12-20T10:09:31;91313.28;;;0.16;76.79
82476;BME280;72099;43.176;76.872;2023-12-20T10:12:32;91335.31;;;0.23;77.59
82476;BME280;72099;43.176;76.872;2023-12-20T10:15:34;91342.78;;;0.20;77.44
82476;BME280;72099;43.176;76.872;2023-12-20T10:18:34;91346.72;;;0.01;77.10
82476;BME280;72099;43.176;76.872;2023-12-20T10:21:36;91362.88;;;-0.09;77.92
82476;BME280;72099;43.176;76.872;2023-12-20T10:24:37;91365.94;;;-0.29;77.99
82476;BME280;72099;43.176;76.872;2023-12-20T10:27:38;91368.94;;;-0.37;78.08
82476;BME280;72099;43.176;76.872;2023-12-20T10:30:39;91369.25;;;-0.50;78.94
82476;BME280;72099;43.176;76.872;2023-12-20T10:33:40;91388.91;;;-0.49;78.95
82476;BME280;72099;43.176;76.872;2023-12-20T10:36:41;91391.72;;;-0.51;78.55
82476;BME280;72099;43.176;76.872;2023-12-20T10:39:49;91398.72;;;-0.51;78.40
82476;BME280;72099;43.176;76.872;2023-12-20T10:42:52;91389.53;;;-0.59;79.01
82476;BME280;72099;43.176;76.872;2023-12-20T10:45:53;91397.22;;;-0.64;78.60
82476;BME280;72099;43.176;76.872;2023-12-20T10:48:55;91394.53;;;-0.69;79.73
82476;BME280;72099;43.176;76.872;2023-12-20T10:51:57;91395.25;;;-0.74;78.76
82476;BME280;72099;43.176;76.872;2023-12-20T10:55:00;91392.56;;;-0.79;79.87
82476;BME280;72099;43.176;76.872;2023-12-20T10:58:04;91396.63;;;-0.83;79.33
82476;BME280;72099;43.176;76.872;2023-12-20T11:01:08;91392.47;;;-0.84;79.71
82476;BME280;72099;43.176;76.872;2023-12-20T11:04:15;91400.16;;;-0.89;79.90
82476;BME280;72099;43.176;76.872;2023-12-20T11:07:25;91393.63;;;-0.92;80.20
82476;BME280;72099;43.176;76.872;2023-12-20T11:10:38;91393.63;;;-0.92;80.22
82476;BME280;72099;43.176;76.872;2023-12-20T11:13:47;91396.91;;;-0.96;79.78
82476;BME280;72099;43.176;76.872;2023-12-20T11:20:37;91382.25;;;-1.07;80.23
82476;BME280;72099;43.176;76.872;2023-12-20T11:23:38;91375.53;;;-1.08;80.12
82476;BME280;72099;43.176;76.872;2023-12-20T11:26:47;91386.97;;;-1.04;80.77
82476;BME280;72099;43.176;76.872;2023-12-20T11:29:53;91393.25;;;-1.00;80.11
82476;BME280;72099;43.176;76.872;2023-12-20T11:32:55;91391.06;;;-0.92;79.80
82476;BME280;72099;43.176;76.872;2023-12-20T11:35:57;91387.69;;;-0.92;79.89
82476;BME280;72099;43.176;76.872;2023-12-20T11:39:00;91388.47;;;-0.92;79.11
82476;BME280;72099;43.176;76.872;2023-12-20T11:42:07;91387.13;;;-0.94;79.06
82476;BME280;72099;43.176;76.872;2023-12-20T11:45:13;91393.50;;;-0.85;79.46
82476;BME280;72099;43.176;76.872;2023-12-20T11:48:15;91398.44;;;-0.83;79.79
82476;BME280;72099;43.176;76.872;2023-12-20T11:51:16;91403.66;;;-0.78;79.80
82476;BME280;72099;43.176;76.872;2023-12-20T11:54:17;91414.88;;;-0.73;79.38
82476;BME280;72099;43.176;76.872;2023-12-20T11:57:19;91417.22;;;-0.71;79.43
82476;BME280;72099;43.176;76.872;2023-12-20T12:00:20;91413.94;;;-0.67;79.38
82476;BME280;72099;43.176;76.872;2023-12-20T12:03:21;91427.88;;;-0.68;79.42
82476;BME280;72099;43.176;76.872;2023-12-20T12:06:24;91429.00;;;-0.64;79.35
82476;BME280;72099;43.176;76.872;2023-12-20T12:09:25;91437.59;;;-0.58;79.69
82476;BME280;72099;43.176;76.872;2023-12-20T12:12:26;91404.56;;;-0.73;79.19
82476;BME280;72099;43.176;76.872;2023-12-20T12:15:27;91440.13;;;-0.46;79.71
82476;BME280;72099;43.176;76.872;2023-12-20T12:18:29;91437.00;;;-0.48;78.85
82476;BME280;72099;43.176;76.872;2023-12-20T12:21:30;91448.66;;;-0.46;79.04
82476;BME280;72099;43.176;76.872;2023-12-20T12:24:31;91445.06;;;-0.45;79.27
82476;BME280;72099;43.176;76.872;2023-12-20T12:27:32;91409.06;;;-0.80;79.26
82476;BME280;72099;43.176;76.872;2023-12-20T12:30:33;91431.41;;;-0.74;79.14
82476;BME280;72099;43.176;76.872;2023-12-20T12:33:34;91454.19;;;-0.71;79.20
82476;BME280;72099;43.176;76.872;2023-12-20T12:36:35;91463.66;;;-0.76;80.07
82476;BME280;72099;43.176;76.872;2023-12-20T12:39:36;91453.56;;;-0.78;79.36
82476;BME280;72099;43.176;76.872;2023-12-20T12:42:37;91466.31;;;-0.71;79.81
82476;BME280;72099;43.176;76.872;2023-12-20T12:45:38;91456.16;;;-0.78;79.15
82476;BME280;72099;43.176;76.872;2023-12-20T12:48:39;91470.69;;;-0.72;79.82
82476;BME280;72099;43.176;76.872;2023-12-20T12:51:40;91465.84;;;-0.68;79.41
82476;BME280;72099;43.176;76.872;2023-12-20T12:54:41;91469.44;;;-0.69;79.04
82476;BME280;72099;43.176;76.872;2023-12-20T12:57:43;91463.66;;;-0.76;79.21
82476;BME280;72099;43.176;76.872;2023-12-20T13:00:44;91456.28;;;-0.84;79.30
82476;BME280;72099;43.176;76.872;2023-12-20T13:03:45;91455.97;;;-0.88;79.06
82476;BME280;72099;43.176;76.872;2023-12-20T13:06:45;91458.13;;;-0.97;79.18
82476;BME280;72099;43.176;76.872;2023-12-20T13:09:47;91471.03;;;-0.97;79.45
82476;BME280;72099;43.176;76.872;2023-12-20T13:12:48;91469.81;;;-1.06;79.47
82476;BME280;72099;43.176;76.872;2023-12-20T13:19:26;91477.78;;;-1.48;79.66
82476;BME280;72099;43.176;76.872;2023-12-20T13:22:27;91478.03;;;-1.61;79.73
82476;BME280;72099;43.176;76.872;2023-12-20T13:25:28;91481.94;;;-1.70;80.02
82476;BME280;72099;43.176;76.872;2023-12-20T13:28:29;91452.72;;;-1.87;80.46
82476;BME280;72099;43.176;76.872;2023-12-20T13:31:30;91474.34;;;-1.76;79.76
82476;BME280;72099;43.176;76.872;2023-12-20T13:34:31;91449.56;;;-1.89;80.09
82476;BME280;72099;43.176;76.872;2023-12-20T13:37:32;91468.19;;;-1.87;79.68
82476;BME280;72099;43.176;76.872;2023-12-20T13:40:33;91467.28;;;-2.04;79.75
82476;BME280;72099;43.176;76.872;2023-12-20T13:43:34;91480.19;;;-2.04;80.05
82476;BME280;72099;43.176;76.872;2023-12-20T13:46:36;91464.47;;;-2.15;79.66
82476;BME280;72099;43.176;76.872;2023-12-20T13:49:37;91463.03;;;-2.11;80.38
82476;BME280;72099;43.176;76.872;2023-12-20T13:52:38;91471.09;;;-2.07;79.97
82476;BME280;72099;43.176;76.872;2023-12-20T13:55:39;91475.91;;;-1.99;80.01
82476;BME280;72099;43.176;76.872;2023-12-20T13:58:40;91479.28;;;-1.87;79.79
82476;BME280;72099;43.176;76.872;2023-12-20T14:01:42;91482.53;;;-1.80;79.37
82476;BME280;72099;43.176;76.872;2023-12-20T14:04:42;91479.72;;;-1.78;79.70
82476;BME280;72099;43.176;76.872;2023-12-20T14:07:44;91485.31;;;-1.69;79.55
82476;BME280;72099;43.176;76.872;2023-12-20T14:10:47;91484.44;;;-1.63;79.45
82476;BME280;72099;43.176;76.872;2023-12-20T14:13:49;91444.88;;;-1.81;79.45
82476;BME280;72099;43.176;76.872;2023-12-20T14:16:49;91495.50;;;-1.39;78.88
82476;BME280;72099;43.176;76.872;2023-12-20T14:19:51;91500.09;;;-1.30;78.67
82476;BME280;72099;43.176;76.872;2023-12-20T14:22:52;91500.03;;;-1.18;78.09
82476;BME280;72099;43.176;76.872;2023-12-20T14:26:29;91492.03;;;-1.05;78.36
82476;BME280;72099;43.176;76.872;2023-12-20T14:29:30;91472.81;;;-0.97;77.68
82476;BME280;72099;43.176;76.872;2023-12-20T14:32:31;91492.66;;;-0.86;76.86
82476;BME280;72099;43.176;76.872;2023-12-20T14:35:32;91495.56;;;-0.82;76.47
82476;BME280;72099;43.176;76.872;2023-12-20T14:38:33;91494.94;;;-0.90;77.22
82476;BME280;72099;43.176;76.872;2023-12-20T14:41:34;91477.47;;;-1.11;77.00
82476;BME280;72099;43.176;76.872;2023-12-20T14:44:35;91469.78;;;-1.34;76.67
82476;BME280;72099;43.176;76.872;2023-12-20T14:47:36;91495.81;;;-1.24;77.11
82476;BME280;72099;43.176;76.872;2023-12-20T14:50:37;91497.59;;;-1.25;77.34
82476;BME280;72099;43.176;76.872;2023-12-20T14:53:38;91501.97;;;-1.25;77.30
82476;BME280;72099;43.176;76.872;2023-12-20T15:00:18;91494.94;;;-1.41;76.04
82476;BME280;72099;43.176;76.872;2023-12-20T15:03:19;91491.59;;;-1.42;76.47
82476;BME280;72099;43.176;76.872;2023-12-20T15:06:20;91509.06;;;-1.44;75.93
82476;BME280;72099;43.176;76.872;2023-12-20T15:09:22;91472.66;;;-1.71;75.92
82476;BME280;72099;43.176;76.872;2023-12-20T15:12:23;91484.88;;;-1.66;75.57
82476;BME280;72099;43.176;76.872;2023-12-20T15:15:27;91515.72;;;-1.60;75.65
82476;BME280;72099;43.176;76.872;2023-12-20T15:18:30;91516.38;;;-1.76;76.28
82476;BME280;72099;43.176;76.872;2023-12-20T15:21:32;91516.84;;;-1.91;76.90
82476;BME280;72099;43.176;76.872;2023-12-20T15:24:40;91516.84;;;-1.91;76.47
82476;BME280;72099;43.176;76.872;2023-12-20T15:27:42;91499.66;;;-1.97;76.38
82476;BME280;72099;43.176;76.872;2023-12-20T15:30:43;91514.25;;;-2.14;76.55
82476;BME280;72099;43.176;76.872;2023-12-20T15:33:44;91539.22;;;-2.15;76.63
82476;BME280;72099;43.176;76.872;2023-12-20T15:36:45;91532.50;;;-2.16;76.59
82476;BME280;72099;43.176;76.872;2023-12-20T15:39:46;91525.56;;;-2.15;76.08
82476;BME280;72099;43.176;76.872;2023-12-20T15:42:47;91524.66;;;-2.21;76.42
82476;BME280;72099;43.176;76.872;2023-12-20T15:45:48;91520.38;;;-2.27;76.01
82476;BME280;72099;43.176;76.872;2023-12-20T15:48:49;91526.63;;;-2.34;76.44
82476;BME280;72099;43.176;76.872;2023-12-20T15:51:50;91526.75;;;-2.41;76.16
82476;BME280;72099;43.176;76.872;2023-12-20T15:54:51;91539.97;;;-2.38;76.32
82476;BME280;72099;43.176;76.872;2023-12-20T15:57:52;91479.38;;;-2.82;76.06
82476;BME280;72099;43.176;76.872;2023-12-20T16:00:53;91531.75;;;-2.58;76.30
82476;BME280;72099;43.176;76.872;2023-12-20T16:03:54;91536.53;;;-2.61;76.30
82476;BME280;72099;43.176;76.872;2023-12-20T16:06:55;91550.28;;;-2.68;76.12
82476;BME280;72099;43.176;76.872;2023-12-20T16:09:56;91516.44;;;-3.01;76.39
82476;BME280;72099;43.176;76.872;2023-12-20T16:12:57;91528.97;;;-3.05;76.17
82476;BME280;72099;43.176;76.872;2023-12-20T16:16:00;91519.94;;;-3.25;77.09
82476;BME280;72099;43.176;76.872;2023-12-20T16:19:01;91494.06;;;-3.49;77.81